Time,TemperatureF,DewpointF,PressureIn,WindDirection,WindDirectionDegrees,WindSpeedMPH,WindSpeedGustMPH,Humidity,HourlyPrecipIn,Conditions,Clouds,dailyrainin,SoftwareType,DateUTC
2013-06-14 00:01:00,58.0,56.0,-100.00,NE,50,25.0,31.0,93,-99.99,,,-99.99,,2013-06-14 04:01:00,
2013-06-14 00:12:00,58.0,56.0,-100.00,NE,50,25.0,31.0,93,-99.99,,,-99.99,,2013-06-14 04:12:00,
2013-06-14 00:22:00,57.0,56.0,-100.00,NE,40,22.0,27.0,93,-99.99,,,-99.99,,2013-06-14 04:22:00,
2013-06-14 00:32:00,57.0,56.0,-100.00,NE,40,22.0,27.0,93,-99.99,,,-99.99,,2013-06-14 04:32:00,
2013-06-14 00:42:00,57.0,56.0,-100.00,NE,40,22.0,27.0,93,-99.99,,,-99.99,,2013-06-14 04:42:00,
2013-06-14 00:53:00,57.0,55.0,-100.00,NE,40,22.0,29.0,91,-99.99,,,-99.99,,2013-06-14 04:53:00,
2013-06-14 01:01:00,57.0,55.0,-100.00,NE,40,22.0,29.0,91,-99.99,,,-99.99,,2013-06-14 05:01:00,
2013-06-14 01:11:00,57.0,55.0,-100.00,NE,40,22.0,29.0,91,-99.99,,,-99.99,,2013-06-14 05:11:00,
2013-06-14 01:22:00,57.0,54.0,-100.00,NE,40,22.0,27.0,89,-99.99,,,-99.99,,2013-06-14 05:22:00,
2013-06-14 01:33:00,57.0,54.0,-100.00,NE,40,22.0,27.0,89,-99.99,,,-99.99,,2013-06-14 05:33:00,
2013-06-14 01:42:00,57.0,54.0,-100.00,NE,40,22.0,27.0,89,-99.99,,,-99.99,,2013-06-14 05:42:00,
2013-06-14 01:52:00,56.0,53.0,-100.00,NE,40,25.0,29.0,88,-99.99,,,-99.99,,2013-06-14 05:52:00,
2013-06-14 02:01:00,56.0,53.0,-100.00,NE,40,25.0,29.0,88,-99.99,,,-99.99,,2013-06-14 06:01:00,
2013-06-14 02:11:00,56.0,53.0,-100.00,NE,40,25.0,29.0,88,-99.99,,,-99.99,,2013-06-14 06:11:00,
2013-06-14 02:33:00,56.0,53.0,-100.00,NNE,20,20.0,25.0,89,-99.99,,,-99.99,,2013-06-14 06:33:00,
2013-06-14 02:43:00,56.0,53.0,-100.00,NNE,20,20.0,25.0,89,-99.99,,,-99.99,,2013-06-14 06:43:00,
2013-06-14 02:52:00,56.0,54.0,-100.00,NNE,30,22.0,29.0,90,-99.99,,,-99.99,,2013-06-14 06:52:00,
2013-06-14 03:02:00,56.0,54.0,-100.00,NNE,30,22.0,29.0,90,-99.99,,,-99.99,,2013-06-14 07:02:00,
2013-06-14 03:12:00,56.0,54.0,-100.00,NNE,30,22.0,29.0,90,-99.99,,,-99.99,,2013-06-14 07:12:00,
2013-06-14 03:22:00,56.0,54.0,-100.00,NNE,20,18.0,22.0,93,-99.99,,,-99.99,,2013-06-14 07:22:00,
2013-06-14 03:32:00,56.0,54.0,-100.00,NNE,20,18.0,22.0,93,-99.99,,,-99.99,,2013-06-14 07:32:00,
2013-06-14 03:43:00,56.0,54.0,-100.00,NNE,20,18.0,22.0,93,-99.99,,,-99.99,,2013-06-14 07:43:00,
2013-06-14 03:53:00,56.0,53.0,-100.00,NNE,20,18.0,22.0,92,-99.99,,,-99.99,,2013-06-14 07:53:00,
2013-06-14 04:01:00,56.0,53.0,-100.00,NNE,20,18.0,22.0,92,-99.99,,,-99.99,,2013-06-14 08:01:00,
2013-06-14 04:11:00,56.0,53.0,-100.00,NNE,20,18.0,22.0,92,-99.99,,,-99.99,,2013-06-14 08:11:00,
2013-06-14 04:32:00,55.0,53.0,-100.00,North,10,20.0,25.0,92,-99.99,,,-99.99,,2013-06-14 08:32:00,
2013-06-14 04:42:00,55.0,53.0,-100.00,North,10,20.0,25.0,92,-99.99,,,-99.99,,2013-06-14 08:42:00,
2013-06-14 04:52:00,56.0,53.0,-100.00,NNE,20,20.0,25.0,90,-99.99,,,-99.99,,2013-06-14 08:52:00,
2013-06-14 05:01:00,56.0,53.0,-100.00,NNE,20,20.0,25.0,90,-99.99,,,-99.99,,2013-06-14 09:01:00,
2013-06-14 05:11:00,56.0,53.0,-100.00,NNE,20,20.0,25.0,90,-99.99,,,-99.99,,2013-06-14 09:11:00,
2013-06-14 05:33:00,56.0,52.0,-100.00,NNE,20,22.0,27.0,88,-99.99,,,-99.99,,2013-06-14 09:33:00,
2013-06-14 05:43:00,56.0,52.0,-100.00,NNE,20,22.0,27.0,88,-99.99,,,-99.99,,2013-06-14 09:43:00,
2013-06-14 05:52:00,56.0,53.0,-100.00,NNE,20,20.0,25.0,88,-99.99,,,-99.99,,2013-06-14 09:52:00,
2013-06-14 06:01:00,56.0,53.0,-100.00,NNE,20,20.0,25.0,88,-99.99,,,-99.99,,2013-06-14 10:01:00,
2013-06-14 06:11:00,56.0,53.0,-100.00,NNE,20,20.0,25.0,88,-99.99,,,-99.99,,2013-06-14 10:11:00,
2013-06-14 06:21:00,56.0,52.0,-100.00,North,350,18.0,22.0,87,-99.99,,,-99.99,,2013-06-14 10:21:00,
2013-06-14 06:33:00,56.0,52.0,-100.00,North,350,18.0,22.0,87,-99.99,,,-99.99,,2013-06-14 10:33:00,
2013-06-14 06:43:00,56.0,52.0,-100.00,North,350,18.0,22.0,87,-99.99,,,-99.99,,2013-06-14 10:43:00,
2013-06-14 06:52:00,56.0,52.0,-100.00,North,10,18.0,22.0,85,-99.99,,,-99.99,,2013-06-14 10:52:00,
2013-06-14 07:01:00,56.0,52.0,-100.00,North,10,18.0,22.0,85,-99.99,,,-99.99,,2013-06-14 11:01:00,
2013-06-14 07:11:00,56.0,52.0,-100.00,North,10,18.0,22.0,85,-99.99,,,-99.99,,2013-06-14 11:11:00,
2013-06-14 07:22:00,56.0,52.0,-100.00,North,360,16.0,20.0,87,-99.99,,,-99.99,,2013-06-14 11:22:00,
2013-06-14 07:32:00,56.0,52.0,-100.00,North,360,16.0,20.0,87,-99.99,,,-99.99,,2013-06-14 11:32:00,
2013-06-14 07:43:00,56.0,52.0,-100.00,North,360,16.0,20.0,87,-99.99,,,-99.99,,2013-06-14 11:43:00,
2013-06-14 07:52:00,56.0,52.0,-100.00,North,10,16.0,20.0,86,-99.99,,,-99.99,,2013-06-14 11:52:00,
2013-06-14 08:01:00,56.0,52.0,-100.00,North,10,16.0,20.0,86,-99.99,,,-99.99,,2013-06-14 12:01:00,
2013-06-14 08:11:00,56.0,52.0,-100.00,North,10,16.0,20.0,86,-99.99,,,-99.99,,2013-06-14 12:11:00,
2013-06-14 08:22:00,56.0,52.0,-100.00,North,360,16.0,20.0,85,-99.99,,,-99.99,,2013-06-14 12:22:00,
2013-06-14 08:32:00,56.0,52.0,-100.00,North,360,16.0,20.0,85,-99.99,,,-99.99,,2013-06-14 12:32:00,
2013-06-14 08:43:00,56.0,52.0,-100.00,North,360,16.0,20.0,85,-99.99,,,-99.99,,2013-06-14 12:43:00,
2013-06-14 08:52:00,57.0,52.0,-100.00,North,10,13.0,18.0,84,-99.99,,,-99.99,,2013-06-14 12:52:00,
2013-06-14 09:01:00,57.0,52.0,-100.00,North,10,13.0,18.0,84,-99.99,,,-99.99,,2013-06-14 13:01:00,
2013-06-14 09:11:00,57.0,52.0,-100.00,North,10,13.0,18.0,84,-99.99,,,-99.99,,2013-06-14 13:11:00,
2013-06-14 09:22:00,58.0,52.0,-100.00,NNE,20,11.0,16.0,80,-99.99,,,-99.99,,2013-06-14 13:22:00,
2013-06-14 09:33:00,58.0,52.0,-100.00,NNE,20,11.0,16.0,80,-99.99,,,-99.99,,2013-06-14 13:33:00,
2013-06-14 09:43:00,58.0,52.0,-100.00,NNE,20,11.0,16.0,80,-99.99,,,-99.99,,2013-06-14 13:43:00,
2013-06-14 09:52:00,58.0,52.0,-100.00,North,360,11.0,16.0,79,-99.99,,,-99.99,,2013-06-14 13:52:00,
2013-06-14 10:02:00,58.0,52.0,-100.00,North,360,11.0,16.0,79,-99.99,,,-99.99,,2013-06-14 14:02:00,
2013-06-14 10:11:00,58.0,52.0,-100.00,North,360,11.0,16.0,79,-99.99,,,-99.99,,2013-06-14 14:11:00,
2013-06-14 10:22:00,59.0,52.0,-100.00,North,360,13.0,16.0,78,-99.99,,,-99.99,,2013-06-14 14:22:00,
2013-06-14 10:33:00,59.0,52.0,-100.00,North,360,13.0,16.0,78,-99.99,,,-99.99,,2013-06-14 14:33:00,
2013-06-14 10:43:00,59.0,52.0,-100.00,North,360,13.0,16.0,78,-99.99,,,-99.99,,2013-06-14 14:43:00,
2013-06-14 10:52:00,59.0,52.0,-100.00,North,360,11.0,13.0,77,-99.99,,,-99.99,,2013-06-14 14:52:00,
2013-06-14 11:01:00,59.0,52.0,-100.00,North,360,11.0,13.0,77,-99.99,,,-99.99,,2013-06-14 15:01:00,
2013-06-14 11:11:00,59.0,52.0,-100.00,North,360,11.0,13.0,77,-99.99,,,-99.99,,2013-06-14 15:11:00,
2013-06-14 11:22:00,60.0,52.0,-100.00,North,10,11.0,13.0,75,-99.99,,,-99.99,,2013-06-14 15:22:00,
2013-06-14 11:33:00,60.0,52.0,-100.00,North,10,11.0,13.0,75,-99.99,,,-99.99,,2013-06-14 15:33:00,
2013-06-14 11:43:00,60.0,52.0,-100.00,North,10,11.0,13.0,75,-99.99,,,-99.99,,2013-06-14 15:43:00,
2013-06-14 11:52:00,60.0,52.0,-100.00,North,360,9.0,13.0,73,-99.99,,,-99.99,,2013-06-14 15:52:00,
2013-06-14 12:01:00,60.0,52.0,-100.00,North,360,9.0,13.0,73,-99.99,,,-99.99,,2013-06-14 16:01:00,
2013-06-14 12:11:00,60.0,52.0,-100.00,North,360,9.0,13.0,73,-99.99,,,-99.99,,2013-06-14 16:11:00,
2013-06-14 12:32:00,61.0,52.0,-100.00,North,350,11.0,13.0,72,-99.99,,,-99.99,,2013-06-14 16:32:00,
2013-06-14 12:43:00,61.0,52.0,-100.00,North,350,11.0,13.0,72,-99.99,,,-99.99,,2013-06-14 16:43:00,
2013-06-14 12:52:00,61.0,52.0,-100.00,North,360,9.0,11.0,71,-99.99,,,-99.99,,2013-06-14 16:52:00,
2013-06-14 13:02:00,61.0,52.0,-100.00,North,360,9.0,11.0,71,-99.99,,,-99.99,,2013-06-14 17:02:00,
2013-06-14 13:11:00,61.0,52.0,-100.00,North,360,9.0,11.0,71,-99.99,,,-99.99,,2013-06-14 17:11:00,
2013-06-14 13:22:00,62.0,51.0,-100.00,North,10,4.0,4.0,67,-99.99,,,-99.99,,2013-06-14 17:22:00,
2013-06-14 13:34:00,62.0,51.0,-100.00,North,10,4.0,4.0,67,-99.99,,,-99.99,,2013-06-14 17:34:00,
2013-06-14 13:43:00,62.0,51.0,-100.00,North,10,4.0,4.0,67,-99.99,,,-99.99,,2013-06-14 17:43:00,
2013-06-14 13:53:00,63.0,51.0,-100.00,North,350,4.0,9.0,64,-99.99,,,-99.99,,2013-06-14 17:53:00,
2013-06-14 14:01:00,63.0,51.0,-100.00,North,350,4.0,9.0,64,-99.99,,,-99.99,,2013-06-14 18:01:00,
2013-06-14 14:11:00,63.0,51.0,-100.00,North,350,4.0,9.0,64,-99.99,,,-99.99,,2013-06-14 18:11:00,
2013-06-14 14:21:00,64.0,51.0,-100.00,SSE,150,2.0,4.0,63,-99.99,,,-99.99,,2013-06-14 18:21:00,
2013-06-14 14:32:00,64.0,51.0,-100.00,SSE,150,2.0,4.0,63,-99.99,,,-99.99,,2013-06-14 18:32:00,
2013-06-14 14:42:00,64.0,51.0,-100.00,SSE,150,2.0,4.0,63,-99.99,,,-99.99,,2013-06-14 18:42:00,
2013-06-14 14:52:00,63.0,52.0,-100.00,SSE,160,9.0,9.0,68,-99.99,,,-99.99,,2013-06-14 18:52:00,
2013-06-14 15:01:00,63.0,52.0,-100.00,SSE,160,9.0,9.0,68,-99.99,,,-99.99,,2013-06-14 19:01:00,
2013-06-14 15:11:00,63.0,52.0,-100.00,SSE,160,9.0,9.0,68,-99.99,,,-99.99,,2013-06-14 19:11:00,
2013-06-14 15:21:00,64.0,52.0,-100.00,SSE,150,7.0,9.0,65,-99.99,,,-99.99,,2013-06-14 19:21:00,
2013-06-14 15:32:00,64.0,52.0,-100.00,SSE,150,7.0,9.0,65,-99.99,,,-99.99,,2013-06-14 19:32:00,
2013-06-14 15:42:00,64.0,52.0,-100.00,SSE,150,7.0,9.0,65,-99.99,,,-99.99,,2013-06-14 19:42:00,
2013-06-14 15:53:00,65.0,55.0,-100.00,SSE,160,7.0,7.0,68,-99.99,,,-99.99,,2013-06-14 19:53:00,
2013-06-14 16:01:00,65.0,55.0,-100.00,SSE,160,7.0,7.0,68,-99.99,,,-99.99,,2013-06-14 20:01:00,
2013-06-14 16:11:00,65.0,55.0,-100.00,SSE,160,7.0,7.0,68,-99.99,,,-99.99,,2013-06-14 20:11:00,
2013-06-14 16:33:00,66.0,56.0,-100.00,SSW,200,4.0,9.0,69,-99.99,,,-99.99,,2013-06-14 20:33:00,
2013-06-14 16:43:00,66.0,56.0,-100.00,SSW,200,4.0,9.0,69,-99.99,,,-99.99,,2013-06-14 20:43:00,
2013-06-14 16:53:00,66.0,57.0,-100.00,SE,130,4.0,7.0,70,-99.99,,,-99.99,,2013-06-14 20:53:00,
2013-06-14 17:01:00,66.0,57.0,-100.00,SE,130,4.0,7.0,70,-99.99,,,-99.99,,2013-06-14 21:01:00,
2013-06-14 17:11:00,66.0,57.0,-100.00,SE,130,4.0,7.0,70,-99.99,,,-99.99,,2013-06-14 21:11:00,
2013-06-14 17:33:00,66.0,57.0,-100.00,ESE,110,7.0,7.0,73,-99.99,,,-99.99,,2013-06-14 21:33:00,
2013-06-14 17:42:00,66.0,57.0,-100.00,ESE,110,7.0,7.0,73,-99.99,,,-99.99,,2013-06-14 21:42:00,
2013-06-14 17:52:00,67.0,58.0,-100.00,SSE,150,4.0,7.0,72,-99.99,,,-99.99,,2013-06-14 21:52:00,
2013-06-14 18:01:00,67.0,58.0,-100.00,SSE,150,4.0,7.0,72,-99.99,,,-99.99,,2013-06-14 22:01:00,
2013-06-14 18:11:00,67.0,58.0,-100.00,SSE,150,4.0,7.0,72,-99.99,,,-99.99,,2013-06-14 22:11:00,
2013-06-14 18:22:00,67.0,59.0,-100.00,SE,130,4.0,7.0,73,-99.99,,,-99.99,,2013-06-14 22:22:00,
2013-06-14 18:33:00,67.0,59.0,-100.00,SE,130,4.0,7.0,73,-99.99,,,-99.99,,2013-06-14 22:33:00,
2013-06-14 18:42:00,67.0,59.0,-100.00,SE,130,4.0,7.0,73,-99.99,,,-99.99,,2013-06-14 22:42:00,
2013-06-14 18:52:00,66.0,58.0,-100.00,SE,140,9.0,11.0,76,-99.99,,,-99.99,,2013-06-14 22:52:00,
2013-06-14 19:01:00,66.0,58.0,-100.00,SE,140,9.0,11.0,76,-99.99,,,-99.99,,2013-06-14 23:01:00,
2013-06-14 19:11:00,66.0,58.0,-100.00,SE,140,9.0,11.0,76,-99.99,,,-99.99,,2013-06-14 23:11:00,
2013-06-14 19:22:00,66.0,57.0,-100.00,South,180,7.0,11.0,74,-99.99,,,-99.99,,2013-06-14 23:22:00,
2013-06-14 19:32:00,66.0,57.0,-100.00,South,180,7.0,11.0,74,-99.99,,,-99.99,,2013-06-14 23:32:00,
2013-06-14 19:42:00,66.0,57.0,-100.00,South,180,7.0,11.0,74,-99.99,,,-99.99,,2013-06-14 23:42:00,
2013-06-14 19:52:00,65.0,58.0,-100.00,South,170,9.0,13.0,76,-99.99,,,-99.99,,2013-06-14 23:52:00,
2013-06-14 20:01:00,65.0,58.0,-100.00,South,170,9.0,13.0,76,-99.99,,,-99.99,,2013-06-15 00:01:00,
2013-06-14 20:11:00,65.0,58.0,-100.00,South,170,9.0,13.0,76,-99.99,,,-99.99,,2013-06-15 00:11:00,
2013-06-14 20:52:00,64.0,58.0,-100.00,SW,220,7.0,11.0,82,-99.99,,,-99.99,,2013-06-15 00:52:00,
2013-06-14 21:01:00,64.0,58.0,-100.00,SW,220,7.0,11.0,82,-99.99,,,-99.99,,2013-06-15 01:01:00,
2013-06-14 21:11:00,64.0,58.0,-100.00,SW,220,7.0,11.0,82,-99.99,,,-99.99,,2013-06-15 01:11:00,
2013-06-14 21:22:00,63.0,59.0,-100.00,South,190,9.0,11.0,85,-99.99,,,-99.99,,2013-06-15 01:22:00,
2013-06-14 21:32:00,63.0,59.0,-100.00,South,190,9.0,11.0,85,-99.99,,,-99.99,,2013-06-15 01:32:00,
2013-06-14 21:42:00,63.0,59.0,-100.00,South,190,9.0,11.0,85,-99.99,,,-99.99,,2013-06-15 01:42:00,
2013-06-14 21:53:00,63.0,59.0,-100.00,SSW,210,7.0,9.0,87,-99.99,,,-99.99,,2013-06-15 01:53:00,
2013-06-14 22:02:00,63.0,59.0,-100.00,SSW,210,7.0,9.0,87,-99.99,,,-99.99,,2013-06-15 02:02:00,
2013-06-14 22:11:00,63.0,59.0,-100.00,SSW,210,7.0,9.0,87,-99.99,,,-99.99,,2013-06-15 02:11:00,
2013-06-14 22:33:00,64.0,60.0,-100.00,WSW,250,7.0,9.0,86,-99.99,,,-99.99,,2013-06-15 02:33:00,
2013-06-14 22:42:00,64.0,60.0,-100.00,WSW,250,7.0,9.0,86,-99.99,,,-99.99,,2013-06-15 02:42:00,
2013-06-14 22:53:00,64.0,60.0,-100.00,West,280,7.0,9.0,88,-99.99,,,-99.99,,2013-06-15 02:53:00,
2013-06-14 23:32:00,65.0,57.0,-100.00,West,260,7.0,9.0,76,-99.99,,,-99.99,,2013-06-15 03:32:00,
2013-06-14 23:43:00,65.0,57.0,-100.00,West,260,7.0,9.0,76,-99.99,,,-99.99,,2013-06-15 03:43:00,
2013-06-14 23:52:00,64.0,57.0,-100.00,West,270,7.0,9.0,78,-99.99,,,-99.99,,2013-06-15 03:52:00,